createdAt,value
2017-11-27T00:01:03.844Z,4.22
2017-11-27T00:03:31.344Z,4.35
2017-11-27T00:05:58.872Z,4.15
2017-11-27T00:08:27.159Z,3.67
2017-11-27T00:10:55.444Z,3.70
2017-11-27T00:13:22.965Z,3.78
2017-11-27T00:15:50.477Z,4.40
2017-11-27T00:18:17.974Z,3.85
2017-11-27T00:20:45.501Z,3.78
2017-11-27T00:23:13.020Z,3.37
2017-11-27T00:25:40.534Z,3.50
2017-11-27T00:28:08.041Z,3.20
2017-11-27T00:30:35.558Z,4.03
2017-11-27T00:33:03.063Z,3.58
2017-11-27T00:35:31.344Z,3.97
2017-11-27T00:37:59.615Z,3.65
2017-11-27T00:40:27.907Z,3.60
2017-11-27T00:42:55.406Z,3.10
2017-11-27T00:45:22.943Z,3.25
2017-11-27T00:47:50.473Z,3.22
2017-11-27T00:50:18.028Z,2.92
2017-11-27T00:52:46.294Z,3.62
2017-11-27T00:55:14.589Z,3.40
2017-11-27T00:57:42.896Z,3.40
2017-11-27T01:00:10.404Z,3.40
2017-11-27T01:02:37.952Z,3.70
2017-11-27T01:05:05.461Z,3.78
2017-11-27T01:07:33.054Z,5.15
2017-11-27T01:10:00.569Z,3.97
2017-11-27T01:12:28.097Z,4.85
2017-11-27T01:14:55.595Z,3.80
2017-11-27T01:17:23.120Z,4.50
2017-11-27T01:19:50.621Z,4.25
2017-11-27T01:22:18.202Z,4.55
2017-11-27T01:24:45.721Z,4.72
2017-11-27T01:27:13.243Z,3.90
2017-11-27T01:29:40.737Z,4.20
2017-11-27T01:32:09.024Z,3.90
2017-11-27T01:34:36.524Z,3.97
2017-11-27T01:37:04.022Z,3.90
2017-11-27T01:39:31.551Z,4.05
2017-11-27T01:41:59.057Z,4.57
2017-11-27T01:44:26.572Z,3.72
2017-11-27T01:46:54.074Z,4.10
2017-11-27T01:49:22.359Z,4.18
2017-11-27T01:51:49.861Z,4.62
2017-11-27T01:54:17.401Z,4.03
2017-11-27T01:56:44.903Z,4.03
2017-11-27T01:59:12.426Z,3.53
2017-11-27T02:01:39.915Z,4.20
2017-11-27T02:04:07.444Z,5.30
2017-11-27T02:06:34.944Z,4.15
2017-11-27T02:09:03.255Z,4.05
2017-11-27T02:11:30.756Z,4.95
2017-11-27T02:13:58.262Z,3.90
2017-11-27T02:16:25.782Z,3.78
2017-11-27T02:18:53.294Z,4.03
2017-11-27T02:21:20.815Z,3.42
2017-11-27T02:23:48.316Z,4.75
2017-11-27T02:26:15.832Z,4.10
2017-11-27T02:28:43.335Z,4.43
2017-11-27T02:31:10.857Z,3.65
2017-11-27T02:33:39.131Z,4.10
2017-11-27T02:36:06.669Z,3.60
2017-11-27T02:38:34.176Z,3.40
2017-11-27T02:41:01.684Z,3.62
2017-11-27T02:43:29.206Z,3.72
2017-11-27T02:45:56.714Z,4.22
2017-11-27T02:48:24.258Z,4.47
2017-11-27T02:50:51.782Z,3.90
2017-11-27T02:53:19.296Z,4.20
2017-11-27T02:55:46.802Z,3.40
2017-11-27T02:58:14.335Z,4.10
2017-11-27T03:00:42.595Z,4.22
2017-11-27T03:03:10.115Z,4.55
2017-11-27T03:05:37.628Z,4.22
2017-11-27T03:08:05.912Z,4.57
2017-11-27T03:10:33.412Z,3.70
2017-11-27T03:13:00.929Z,4.22
2017-11-27T03:15:28.427Z,4.47
2017-11-27T03:17:55.948Z,3.97
2017-11-27T03:20:23.443Z,4.68
2017-11-27T03:22:50.987Z,4.47
2017-11-27T03:25:18.487Z,4.30
2017-11-27T03:27:45.988Z,4.20
2017-11-27T03:30:13.509Z,5.05
2017-11-27T03:32:41.008Z,4.50
2017-11-27T03:35:08.524Z,4.00
2017-11-27T03:37:36.053Z,3.55
2017-11-27T03:40:03.567Z,3.62
2017-11-27T03:42:31.831Z,3.67
2017-11-27T03:45:00.144Z,4.10
2017-11-27T03:47:27.643Z,4.00
2017-11-27T03:49:55.159Z,3.60
2017-11-27T03:52:22.659Z,4.40
2017-11-27T03:54:50.351Z,3.67
2017-11-27T03:57:18.634Z,4.28
2017-11-27T03:59:46.167Z,3.70
2017-11-27T04:02:13.664Z,4.25
2017-11-27T04:04:41.195Z,4.00
2017-11-27T04:07:08.695Z,2.95
2017-11-27T04:09:36.243Z,3.67
2017-11-27T04:12:03.751Z,3.72
2017-11-27T04:14:31.251Z,3.80
2017-11-27T04:16:58.779Z,4.00
2017-11-27T04:19:26.282Z,3.30
2017-11-27T04:21:53.800Z,3.55
2017-11-27T04:24:21.292Z,4.53
2017-11-27T04:26:49.570Z,3.12
2017-11-27T04:29:17.839Z,3.40
2017-11-27T04:31:45.356Z,3.40
2017-11-27T04:34:12.866Z,3.20
2017-11-27T04:36:41.172Z,3.12
2017-11-27T04:39:08.672Z,3.90
2017-11-27T04:41:36.164Z,3.55
2017-11-27T04:44:03.687Z,3.25
2017-11-27T04:46:31.224Z,4.10
2017-11-27T04:48:58.762Z,3.45
2017-11-27T04:51:26.263Z,3.50
2017-11-27T04:53:53.781Z,3.30
2017-11-27T04:56:21.282Z,3.20
2017-11-27T04:58:48.832Z,3.10
2017-11-27T05:01:16.336Z,3.47
2017-11-27T05:03:43.848Z,2.70
2017-11-27T05:06:11.392Z,3.15
2017-11-27T05:08:38.938Z,3.00
2017-11-27T05:11:06.463Z,2.72
2017-11-27T05:13:34.763Z,2.70
2017-11-27T05:16:02.260Z,2.60
2017-11-27T05:18:29.773Z,2.33
2017-11-27T05:20:57.268Z,2.75
2017-11-27T05:23:24.804Z,3.03
2017-11-27T05:25:52.317Z,2.97
2017-11-27T05:28:19.843Z,3.03
2017-11-27T05:30:47.349Z,2.30
2017-11-27T05:33:15.648Z,2.97
2017-11-27T05:35:43.148Z,2.90
2017-11-27T05:38:10.660Z,2.95
2017-11-27T05:40:38.176Z,2.90
2017-11-27T05:43:05.698Z,3.33
2017-11-27T05:45:33.217Z,2.60
2017-11-27T05:48:00.732Z,2.87
2017-11-27T05:50:28.254Z,2.40
2017-11-27T05:52:55.759Z,2.97
2017-11-27T05:55:23.308Z,2.62
2017-11-27T05:57:50.835Z,3.20
2017-11-27T06:00:18.335Z,2.92
2017-11-27T06:02:45.868Z,2.62
2017-11-27T06:05:13.363Z,2.95
2017-11-27T06:07:40.888Z,3.10
2017-11-27T06:10:08.395Z,3.15
2017-11-27T06:12:35.915Z,3.03
2017-11-27T06:15:03.421Z,3.10
2017-11-27T06:17:30.940Z,2.62
2017-11-27T06:19:58.459Z,3.30
2017-11-27T06:22:25.980Z,2.85
2017-11-27T06:24:53.485Z,2.60
2017-11-27T06:27:21.004Z,3.42
2017-11-27T06:29:49.287Z,2.97
2017-11-27T06:32:16.840Z,2.95
2017-11-27T06:34:44.367Z,3.25
2017-11-27T06:37:11.896Z,2.85
2017-11-27T06:39:39.414Z,2.75
2017-11-27T06:42:07.023Z,3.08
2017-11-27T06:44:34.521Z,2.30
2017-11-27T06:47:02.030Z,3.10
2017-11-27T06:49:29.548Z,2.90
2017-11-27T06:51:57.055Z,2.83
2017-11-27T06:54:24.580Z,2.87
2017-11-27T06:56:52.120Z,2.50
2017-11-27T06:59:19.635Z,2.25
2017-11-27T07:01:47.127Z,2.50
2017-11-27T07:04:14.640Z,2.53
2017-11-27T07:06:42.141Z,2.55
2017-11-27T07:09:09.667Z,2.40
2017-11-27T07:11:37.195Z,2.70
2017-11-27T07:14:05.487Z,2.65
2017-11-27T07:16:33.764Z,2.55
2017-11-27T07:19:01.268Z,2.45
2017-11-27T07:21:28.795Z,2.28
2017-11-27T07:23:56.292Z,2.92
2017-11-27T07:26:23.812Z,3.00
2017-11-27T07:28:51.311Z,2.37
2017-11-27T07:31:18.842Z,3.00
2017-11-27T07:33:46.348Z,2.22
2017-11-27T07:36:13.869Z,2.22
2017-11-27T07:38:46.927Z,2.22
2017-11-27T07:41:15.211Z,2.40
2017-11-27T07:43:42.724Z,2.75
2017-11-27T07:46:10.240Z,2.95
2017-11-27T07:48:37.767Z,2.90
2017-11-27T07:51:06.095Z,2.83
2017-11-27T07:53:33.588Z,3.22
2017-11-27T07:56:01.121Z,2.95
2017-11-27T07:58:28.702Z,3.00
2017-11-27T08:00:56.209Z,3.00
2017-11-27T08:03:23.724Z,3.10
2017-11-27T08:05:51.218Z,2.80
2017-11-27T08:08:18.740Z,3.15
2017-11-27T08:10:46.231Z,2.90
2017-11-27T08:13:14.521Z,3.45
2017-11-27T08:15:42.027Z,3.12
2017-11-27T08:18:09.548Z,3.60
2017-11-27T08:20:37.047Z,2.95
2017-11-27T08:23:04.564Z,3.17
2017-11-27T08:25:32.063Z,3.17
2017-11-27T08:27:59.600Z,3.00
2017-11-27T08:30:27.097Z,3.28
2017-11-27T08:32:54.596Z,2.80
2017-11-27T08:35:22.131Z,3.10
2017-11-27T08:37:50.394Z,2.80
2017-11-27T08:40:17.923Z,2.42
2017-11-27T08:42:45.424Z,2.83
2017-11-27T08:45:13.713Z,2.90
2017-11-27T08:47:41.217Z,3.28
2017-11-27T08:50:08.754Z,2.22
2017-11-27T08:52:36.312Z,2.50
2017-11-27T08:55:03.831Z,2.62
2017-11-27T08:57:32.098Z,2.37
2017-11-27T08:59:59.623Z,2.55
2017-11-27T09:02:27.131Z,2.65
2017-11-27T09:04:54.644Z,2.25
2017-11-27T09:07:22.146Z,2.92
2017-11-27T09:09:50.432Z,2.45
2017-11-27T09:12:17.938Z,2.55
2017-11-27T09:14:45.476Z,1.55
2017-11-27T09:17:12.972Z,1.70
2017-11-27T09:19:40.508Z,2.50
2017-11-27T09:22:08.784Z,2.22
2017-11-27T09:24:36.298Z,2.10
2017-11-27T09:27:04.581Z,2.15
2017-11-27T09:29:32.081Z,2.17
2017-11-27T09:31:59.600Z,2.40
2017-11-27T09:34:27.864Z,2.00
2017-11-27T09:36:56.252Z,1.95
2017-11-27T09:39:24.535Z,2.25
2017-11-27T09:41:52.828Z,2.72
2017-11-27T09:44:20.340Z,1.90
2017-11-27T09:46:47.900Z,2.45
2017-11-27T09:49:15.436Z,1.95
2017-11-27T09:51:42.967Z,1.73
2017-11-27T09:54:10.537Z,2.25
2017-11-27T09:56:38.070Z,2.10
2017-11-27T09:59:05.576Z,2.40
2017-11-27T10:01:33.103Z,1.70
2017-11-27T10:04:00.622Z,1.85
2017-11-27T10:06:28.137Z,2.00
2017-11-27T10:08:55.655Z,1.40
2017-11-27T10:11:23.922Z,1.52
2017-11-27T10:13:51.453Z,1.83
2017-11-27T10:16:18.971Z,1.75
2017-11-27T10:18:46.547Z,1.75
2017-11-27T10:21:14.058Z,1.70
2017-11-27T10:23:41.573Z,1.67
2017-11-27T10:26:09.077Z,1.60
2017-11-27T10:28:36.607Z,1.80
2017-11-27T10:31:04.118Z,1.55
2017-11-27T10:33:32.409Z,1.60
2017-11-27T10:35:59.921Z,1.50
2017-11-27T10:38:27.461Z,2.10
2017-11-27T10:40:54.972Z,1.75
2017-11-27T10:43:23.256Z,1.17
2017-11-27T10:45:50.782Z,1.95
2017-11-27T10:48:19.107Z,1.80
2017-11-27T10:50:46.672Z,1.52
2017-11-27T10:53:14.182Z,2.17
2017-11-27T10:55:41.692Z,1.70
2017-11-27T10:58:09.223Z,1.55
2017-11-27T11:00:42.276Z,1.87
2017-11-27T11:03:09.797Z,2.10
2017-11-27T11:05:37.301Z,1.60
2017-11-27T11:08:04.827Z,1.50
2017-11-27T11:10:32.320Z,1.20
2017-11-27T11:12:59.843Z,1.37
2017-11-27T11:15:27.344Z,1.75
2017-11-27T11:17:54.865Z,1.85
2017-11-27T11:20:22.372Z,1.67
2017-11-27T11:22:50.676Z,1.45
2017-11-27T11:25:18.187Z,1.20
2017-11-27T11:27:45.727Z,1.10
2017-11-27T11:30:13.240Z,0.90
2017-11-27T11:32:40.748Z,1.37
2017-11-27T11:35:08.267Z,1.40
2017-11-27T11:37:35.767Z,1.40
2017-11-27T11:40:03.289Z,1.23
2017-11-27T11:42:30.805Z,1.08
2017-11-27T11:44:58.330Z,1.12
2017-11-27T11:47:25.839Z,1.20
2017-11-27T11:49:53.388Z,1.73
2017-11-27T11:52:20.888Z,1.60
2017-11-27T11:54:48.420Z,1.27
2017-11-27T11:57:16.694Z,1.40
2017-11-27T11:59:44.975Z,1.40
2017-11-27T12:02:13.279Z,1.35
2017-11-27T12:04:40.812Z,1.10
2017-11-27T12:07:09.084Z,1.33
2017-11-27T12:09:37.367Z,1.10
2017-11-27T12:12:05.635Z,1.12
2017-11-27T12:14:33.938Z,1.45
2017-11-27T12:17:01.445Z,5.12
2017-11-27T12:19:29.960Z,2.60
2017-11-27T12:21:58.228Z,2.33
2017-11-27T12:24:26.519Z,1.40
2017-11-27T12:26:54.034Z,1.15
2017-11-27T12:29:21.559Z,1.60
2017-11-27T12:31:49.065Z,1.25
2017-11-27T12:34:16.599Z,1.05
2017-11-27T12:36:44.116Z,2.40
2017-11-27T12:39:12.384Z,1.40
2017-11-27T12:41:40.675Z,1.10
2017-11-27T12:44:08.169Z,1.12
2017-11-27T12:46:35.696Z,1.17
2017-11-27T12:49:03.202Z,1.20
2017-11-27T12:51:30.742Z,1.15
2017-11-27T12:53:58.236Z,1.23
2017-11-27T12:56:25.754Z,1.30
2017-11-27T12:58:53.260Z,1.35
2017-11-27T13:01:20.788Z,1.30
2017-11-27T13:03:48.288Z,0.85
2017-11-27T13:06:16.585Z,1.05
2017-11-27T13:08:44.087Z,0.88
2017-11-27T13:11:11.608Z,1.30
2017-11-27T13:13:39.108Z,1.10
2017-11-27T13:16:06.652Z,0.85
2017-11-27T13:18:34.202Z,0.98
2017-11-27T13:21:01.713Z,1.05
2017-11-27T13:23:29.232Z,0.73
2017-11-27T13:25:56.736Z,0.98
2017-11-27T13:28:25.016Z,0.98
2017-11-27T13:30:53.291Z,1.00
2017-11-27T13:33:21.582Z,0.95
2017-11-27T13:35:49.848Z,0.90
2017-11-27T13:38:20.074Z,0.80
2017-11-27T13:40:48.379Z,0.80
2017-11-27T13:43:15.919Z,0.88
2017-11-27T13:45:43.428Z,0.80
2017-11-27T13:48:10.975Z,0.80
2017-11-27T13:50:38.484Z,0.90
2017-11-27T13:53:06.761Z,0.85
2017-11-27T13:55:35.045Z,0.82
2017-11-27T13:58:03.320Z,0.90
2017-11-27T14:00:31.617Z,0.70
2017-11-27T14:02:59.119Z,0.80
2017-11-27T14:05:26.636Z,1.00
2017-11-27T14:07:54.149Z,0.88
2017-11-27T14:10:21.770Z,1.00
2017-11-27T14:12:49.272Z,1.55
2017-11-27T14:15:16.808Z,1.00
2017-11-27T14:17:44.319Z,0.95
2017-11-27T14:20:12.628Z,1.10
2017-11-27T14:22:40.132Z,0.80
2017-11-27T14:25:07.703Z,1.15
2017-11-27T14:27:35.987Z,0.93
2017-11-27T14:30:03.532Z,1.00
2017-11-27T14:32:31.819Z,1.17
2017-11-27T14:35:00.113Z,0.85
2017-11-27T14:37:28.385Z,1.02
2017-11-27T14:39:56.663Z,1.12
2017-11-27T14:42:24.944Z,1.33
2017-11-27T14:44:52.505Z,0.80
2017-11-27T14:47:20.008Z,0.90
2017-11-27T14:49:47.515Z,0.88
2017-11-27T14:52:15.060Z,1.15
2017-11-27T14:54:43.337Z,1.35
2017-11-27T14:57:11.648Z,1.50
2017-11-27T14:59:39.160Z,1.05
2017-11-27T15:02:06.692Z,1.02
2017-11-27T15:04:34.201Z,1.45
2017-11-27T15:07:02.500Z,1.30
2017-11-27T15:09:29.999Z,1.30
2017-11-27T15:11:57.537Z,0.90
2017-11-27T15:14:25.806Z,1.00
2017-11-27T15:16:53.341Z,1.95
2017-11-27T15:19:20.860Z,1.10
2017-11-27T15:21:48.461Z,1.20
2017-11-27T15:24:16.821Z,1.45
2017-11-27T15:26:45.129Z,1.80
2017-11-27T15:29:12.629Z,1.30
2017-11-27T15:31:40.151Z,1.55
2017-11-27T15:34:07.645Z,1.30
2017-11-27T15:36:35.176Z,1.27
2017-11-27T15:39:02.696Z,1.20
2017-11-27T15:41:30.230Z,1.30
2017-11-27T15:43:57.723Z,1.20
2017-11-27T15:46:25.248Z,1.23
2017-11-27T15:48:52.777Z,1.05
2017-11-27T15:51:21.085Z,1.25
2017-11-27T15:53:48.603Z,1.42
2017-11-27T15:56:16.131Z,1.40
2017-11-27T15:58:43.637Z,1.42
2017-11-27T16:01:11.167Z,1.33
2017-11-27T16:03:38.693Z,1.15
2017-11-27T16:06:06.991Z,1.05
2017-11-27T16:08:35.278Z,1.20
2017-11-27T16:11:02.812Z,1.17
2017-11-27T16:13:30.330Z,1.37
2017-11-27T16:15:57.843Z,1.15
2017-11-27T16:18:25.336Z,0.88
2017-11-27T16:20:52.868Z,1.20
2017-11-27T16:23:20.400Z,1.45
2017-11-27T16:25:47.919Z,1.35
2017-11-27T16:28:15.416Z,1.10
2017-11-27T16:30:42.936Z,1.08
2017-11-27T16:33:10.428Z,1.05
2017-11-27T16:35:37.941Z,1.10
2017-11-27T16:38:05.463Z,1.15
2017-11-27T16:40:33.745Z,1.15
2017-11-27T16:43:02.088Z,1.15
2017-11-27T16:45:29.596Z,1.40
2017-11-27T16:47:57.880Z,1.40
2017-11-27T16:50:26.142Z,1.05
2017-11-27T16:52:54.447Z,0.93
2017-11-27T16:55:21.946Z,1.50
2017-11-27T16:57:49.474Z,1.42
2017-11-27T17:00:17.008Z,1.20
2017-11-27T17:02:44.536Z,0.98
2017-11-27T17:05:12.053Z,1.05
2017-11-27T17:07:39.577Z,1.10
2017-11-27T17:10:07.922Z,1.12
2017-11-27T17:12:35.459Z,1.05
2017-11-27T17:15:03.832Z,1.08
2017-11-27T17:17:31.376Z,1.00
2017-11-27T17:19:58.899Z,1.20
2017-11-27T17:22:27.176Z,1.58
2017-11-27T17:24:54.708Z,1.42
2017-11-27T17:27:22.212Z,1.30
2017-11-27T17:29:51.497Z,0.90
2017-11-27T17:32:20.777Z,1.20
2017-11-27T17:34:48.304Z,1.40
2017-11-27T17:37:15.982Z,1.50
2017-11-27T17:39:43.559Z,1.20
2017-11-27T17:42:11.079Z,1.10
2017-11-27T17:44:39.368Z,0.80
2017-11-27T17:47:07.114Z,0.85
2017-11-27T17:49:34.636Z,1.00
2017-11-27T17:52:02.912Z,1.00
2017-11-27T17:54:32.409Z,1.08
2017-11-27T17:56:59.926Z,1.15
2017-11-27T17:59:27.506Z,0.90
2017-11-27T18:01:55.021Z,1.35
2017-11-27T18:04:22.520Z,1.40
2017-11-27T18:06:50.045Z,1.60
2017-11-27T18:09:17.578Z,2.03
2017-11-27T18:11:45.120Z,1.27
2017-11-27T18:14:12.623Z,6.57
2017-11-27T18:16:40.152Z,2.85
2017-11-27T18:19:07.644Z,1.75
2017-11-27T18:21:35.232Z,1.70
2017-11-27T18:24:02.742Z,1.40
2017-11-27T18:26:31.009Z,1.83
2017-11-27T18:28:58.551Z,1.20
2017-11-27T18:31:26.056Z,1.15
2017-11-27T18:33:53.604Z,1.12
2017-11-27T18:36:21.880Z,0.85
2017-11-27T18:38:50.191Z,1.25
2017-11-27T18:41:17.710Z,1.23
2017-11-27T18:43:45.229Z,1.58
2017-11-27T18:46:12.749Z,1.37
2017-11-27T18:48:40.294Z,1.20
2017-11-27T18:51:07.805Z,1.00
2017-11-27T18:53:35.412Z,0.80
2017-11-27T18:56:03.716Z,0.95
2017-11-27T18:58:31.277Z,0.90
2017-11-27T19:00:58.795Z,1.35
2017-11-27T19:03:26.297Z,0.98
2017-11-27T19:05:53.832Z,1.12
2017-11-27T19:08:21.340Z,1.05
2017-11-27T19:10:48.880Z,0.88
2017-11-27T19:13:16.416Z,1.00
2017-11-27T19:15:43.931Z,0.90
2017-11-27T19:18:11.464Z,0.90
2017-11-27T19:20:38.978Z,1.08
2017-11-27T19:23:07.240Z,1.15
2017-11-27T19:25:34.752Z,0.70
2017-11-27T19:28:02.245Z,1.35
2017-11-27T19:30:29.777Z,0.93
2017-11-27T19:32:57.272Z,1.02
2017-11-27T19:35:24.799Z,0.70
2017-11-27T19:37:52.297Z,1.10
2017-11-27T19:40:20.658Z,1.15
2017-11-27T19:42:48.204Z,0.93
2017-11-27T19:45:15.707Z,0.90
2017-11-27T19:47:43.240Z,1.10
2017-11-27T19:50:10.739Z,1.20
2017-11-27T19:52:38.324Z,1.33
2017-11-27T19:55:05.852Z,1.30
2017-11-27T19:57:34.132Z,1.25
2017-11-27T20:00:01.688Z,1.00
2017-11-27T20:02:29.976Z,1.15
2017-11-27T20:04:57.510Z,1.30
2017-11-27T20:07:25.042Z,0.98
2017-11-27T20:09:52.574Z,1.20
2017-11-27T20:12:20.133Z,1.40
2017-11-27T20:14:47.641Z,1.10
2017-11-27T20:17:15.161Z,0.85
2017-11-27T20:19:42.672Z,0.88
2017-11-27T20:22:10.969Z,1.15
2017-11-27T20:24:38.504Z,1.00
2017-11-27T20:27:06.039Z,0.70
2017-11-27T20:29:33.545Z,1.02
2017-11-27T20:32:01.091Z,0.90
2017-11-27T20:34:29.769Z,1.02
2017-11-27T20:36:58.521Z,0.82
2017-11-27T20:39:26.024Z,0.80
2017-11-27T20:41:54.313Z,0.90
2017-11-27T20:44:21.822Z,0.73
2017-11-27T20:46:49.339Z,0.85
2017-11-27T20:49:16.847Z,0.60
2017-11-27T20:51:44.409Z,0.80
2017-11-27T20:54:11.929Z,1.00
2017-11-27T20:56:41.408Z,0.70
2017-11-27T20:59:09.708Z,0.60
2017-11-27T21:01:37.214Z,0.70
2017-11-27T21:04:04.741Z,0.70
2017-11-27T21:06:32.261Z,0.80
2017-11-27T21:09:00.552Z,0.85
2017-11-27T21:11:28.072Z,0.90
2017-11-27T21:13:55.596Z,0.73
2017-11-27T21:16:23.088Z,0.70
2017-11-27T21:18:50.612Z,0.80
2017-11-27T21:21:18.113Z,0.65
2017-11-27T21:23:45.628Z,0.68
2017-11-27T21:26:13.136Z,0.60
2017-11-27T21:28:40.665Z,0.70
2017-11-27T21:31:08.227Z,0.80
2017-11-27T21:33:35.738Z,0.50
2017-11-27T21:36:03.256Z,0.70
2017-11-27T21:38:30.749Z,0.70
2017-11-27T21:40:59.033Z,0.65
2017-11-27T21:43:26.533Z,0.50
2017-11-27T21:45:54.052Z,0.50
2017-11-27T21:48:21.566Z,0.70
2017-11-27T21:50:49.145Z,0.65
2017-11-27T21:53:16.676Z,0.60
2017-11-27T21:55:44.196Z,0.80
2017-11-27T21:58:11.712Z,0.70
2017-11-27T22:00:39.220Z,0.70
2017-11-27T22:03:06.741Z,0.88
2017-11-27T22:05:34.276Z,0.75
2017-11-27T22:08:01.802Z,0.60
2017-11-27T22:10:29.307Z,0.82
2017-11-27T22:12:56.825Z,0.60
2017-11-27T22:15:24.320Z,0.68
2017-11-27T22:17:51.845Z,0.50
2017-11-27T22:20:19.352Z,0.70
2017-11-27T22:22:46.988Z,0.70
2017-11-27T22:25:14.487Z,0.70
2017-11-27T22:27:42.027Z,0.70
2017-11-27T22:30:09.533Z,0.50
2017-11-27T22:32:37.051Z,0.68
2017-11-27T22:35:04.549Z,0.55
2017-11-27T22:37:32.122Z,0.50
2017-11-27T22:39:59.645Z,0.70
2017-11-27T22:42:27.911Z,0.60
2017-11-27T22:44:56.205Z,0.60
2017-11-27T22:47:23.723Z,0.70
2017-11-27T22:49:51.244Z,0.60
2017-11-27T22:52:18.747Z,0.60
2017-11-27T22:54:46.263Z,0.65
2017-11-27T22:57:13.757Z,0.70
2017-11-27T22:59:41.286Z,0.60
2017-11-27T23:02:08.779Z,0.70
2017-11-27T23:04:36.291Z,0.50
2017-11-27T23:07:03.808Z,0.73
2017-11-27T23:09:31.343Z,0.65
2017-11-27T23:11:58.868Z,0.70
2017-11-27T23:14:26.391Z,0.70
2017-11-27T23:16:53.888Z,0.70
2017-11-27T23:19:21.406Z,0.57
2017-11-27T23:21:48.908Z,0.70
2017-11-27T23:24:16.428Z,0.70
2017-11-27T23:26:43.928Z,0.50
2017-11-27T23:29:11.452Z,0.80
2017-11-27T23:31:39.719Z,0.60
2017-11-27T23:34:07.236Z,0.50
2017-11-27T23:36:34.745Z,0.55
2017-11-27T23:39:03.032Z,0.70
2017-11-27T23:41:31.323Z,0.50
2017-11-27T23:43:58.825Z,0.70
2017-11-27T23:46:26.340Z,0.90
2017-11-27T23:48:53.841Z,0.70
2017-11-27T23:51:21.366Z,0.70
2017-11-27T23:53:48.869Z,0.50
2017-11-27T23:56:16.380Z,0.62
2017-11-27T23:58:43.874Z,0.60
